createdAt,value
2023-03-27T00:02:05.384Z,6.69
2023-03-27T00:04:32.037Z,6.81
2023-03-27T00:06:59.660Z,6.53
2023-03-27T00:09:27.841Z,6.68
2023-03-27T00:11:57.224Z,6.82
2023-03-27T00:14:23.993Z,6.86
2023-03-27T00:16:51.401Z,6.77
2023-03-27T00:19:19.039Z,6.84
2023-03-27T00:21:45.937Z,7.14
2023-03-27T00:24:13.946Z,7.21
2023-03-27T00:26:40.742Z,7.16
2023-03-27T00:29:08.260Z,7.25
2023-03-27T00:31:35.258Z,7.33
2023-03-27T00:34:03.300Z,7.27
2023-03-27T00:36:30.169Z,7.24
2023-03-27T00:38:56.838Z,7.14
2023-03-27T00:41:23.591Z,7.31
2023-03-27T00:43:52.700Z,6.77
2023-03-27T00:46:43.364Z,6.63
2023-03-27T00:49:12.275Z,6.88
2023-03-27T00:51:41.637Z,6.74
2023-03-27T00:54:09.754Z,6.91
2023-03-27T00:56:38.591Z,6.95
2023-03-27T00:59:12.451Z,6.85
2023-03-27T01:01:40.314Z,6.81
2023-03-27T01:04:08.752Z,6.92
2023-03-27T01:06:36.844Z,6.78
2023-03-27T01:09:04.718Z,6.56
2023-03-27T01:11:59.656Z,6.73
2023-03-27T01:14:45.981Z,6.70
2023-03-27T01:17:30.468Z,6.64
2023-03-27T01:20:10.089Z,6.46
2023-03-27T01:22:42.769Z,6.48
2023-03-27T01:25:20.831Z,6.45
2023-03-27T01:28:10.641Z,6.30
2023-03-27T01:31:05.152Z,6.44
2023-03-27T01:34:02.966Z,6.23
2023-03-27T01:37:19.025Z,6.40
2023-03-27T01:39:51.487Z,6.38
2023-03-27T01:42:23.292Z,6.25
2023-03-27T01:45:10.101Z,6.12
2023-03-27T01:47:58.076Z,6.05
2023-03-27T01:50:36.066Z,5.60
2023-03-27T01:53:10.643Z,5.59
2023-03-27T01:55:41.177Z,5.54
2023-03-27T01:58:13.954Z,5.42
2023-03-27T02:00:51.390Z,5.56
2023-03-27T02:03:24.472Z,5.62
2023-03-27T02:06:01.502Z,5.49
2023-03-27T02:08:40.347Z,5.45
2023-03-27T02:11:08.112Z,5.30
2023-03-27T02:13:43.687Z,5.04
2023-03-27T02:16:17.388Z,5.23
2023-03-27T02:18:50.453Z,5.19
2023-03-27T02:21:17.352Z,5.15
2023-03-27T02:23:44.753Z,5.11
2023-03-27T02:26:13.199Z,5.25
2023-03-27T02:28:57.274Z,5.13
2023-03-27T02:31:32.400Z,5.04
2023-03-27T02:34:32.030Z,5.10
2023-03-27T02:37:16.316Z,5.09
2023-03-27T02:39:56.761Z,5.12
2023-03-27T02:42:52.879Z,5.10
2023-03-27T02:45:30.566Z,5.02
2023-03-27T02:48:12.997Z,4.99
2023-03-27T02:50:54.271Z,4.89
2023-03-27T02:53:23.799Z,4.98
2023-03-27T02:55:57.263Z,4.99
2023-03-27T02:58:37.157Z,4.99
2023-03-27T03:01:05.199Z,4.98
2023-03-27T03:03:41.736Z,4.96
2023-03-27T03:06:11.494Z,4.97
2023-03-27T03:08:39.109Z,4.78
2023-03-27T03:11:12.039Z,4.58
2023-03-27T03:13:38.769Z,4.74
2023-03-27T03:16:06.193Z,4.71
2023-03-27T03:18:32.757Z,4.60
2023-03-27T03:20:59.969Z,4.52
2023-03-27T03:23:27.041Z,4.30
2023-03-27T03:25:57.031Z,4.35
2023-03-27T03:28:26.037Z,4.03
2023-03-27T03:30:53.740Z,4.18
2023-03-27T03:33:21.744Z,4.08
2023-03-27T03:35:50.578Z,4.24
2023-03-27T03:38:27.217Z,4.32
2023-03-27T03:40:55.666Z,4.36
2023-03-27T03:43:24.108Z,4.25
2023-03-27T03:45:51.103Z,4.15
2023-03-27T03:48:18.621Z,4.03
2023-03-27T03:50:46.537Z,4.04
2023-03-27T03:53:17.386Z,3.99
2023-03-27T03:55:45.490Z,4.06
2023-03-27T03:58:12.499Z,4.13
2023-03-27T04:00:40.098Z,3.86
2023-03-27T04:03:09.411Z,3.86
2023-03-27T04:05:37.555Z,3.53
2023-03-27T04:08:08.261Z,3.57
2023-03-27T04:10:37.541Z,3.77
2023-03-27T04:13:04.440Z,3.81
2023-03-27T04:15:31.080Z,3.79
2023-03-27T04:17:58.131Z,3.52
2023-03-27T04:20:27.633Z,3.76
2023-03-27T04:22:54.522Z,3.73
2023-03-27T04:25:24.235Z,3.72
2023-03-27T04:27:51.525Z,3.77
2023-03-27T04:30:23.349Z,3.68
2023-03-27T04:32:53.813Z,3.89
2023-03-27T04:35:21.628Z,3.74
2023-03-27T04:37:48.623Z,3.51
2023-03-27T04:40:18.206Z,3.85
2023-03-27T04:42:45.596Z,3.85
2023-03-27T04:45:18.065Z,3.83
2023-03-27T04:47:44.904Z,3.81
2023-03-27T04:50:13.030Z,3.93
2023-03-27T04:52:39.796Z,3.88
2023-03-27T04:55:07.886Z,3.93
2023-03-27T04:57:34.737Z,3.95
2023-03-27T05:00:02.271Z,3.93
2023-03-27T05:02:31.239Z,3.89
2023-03-27T05:05:02.192Z,3.91
2023-03-27T05:07:28.879Z,3.82
2023-03-27T05:09:55.921Z,3.87
2023-03-27T05:12:22.596Z,3.90
2023-03-27T05:14:49.406Z,3.87
2023-03-27T05:17:16.891Z,3.88
2023-03-27T05:19:45.240Z,3.85
2023-03-27T05:22:13.834Z,3.93
2023-03-27T05:24:40.362Z,3.91
2023-03-27T05:27:07.129Z,3.87
2023-03-27T05:29:46.389Z,3.96
2023-03-27T05:32:14.239Z,4.03
2023-03-27T05:34:41.330Z,4.13
2023-03-27T05:37:07.942Z,4.24
2023-03-27T05:39:36.558Z,4.25
2023-03-27T05:42:03.225Z,4.53
2023-03-27T05:44:31.323Z,4.83
2023-03-27T05:46:58.870Z,4.94
2023-03-27T05:49:25.499Z,5.16
2023-03-27T05:51:52.690Z,5.42
2023-03-27T05:54:19.395Z,5.64
2023-03-27T05:56:46.678Z,5.71
2023-03-27T05:59:13.434Z,5.58
2023-03-27T06:01:40.369Z,5.30
2023-03-27T06:04:09.641Z,5.42
2023-03-27T06:06:36.466Z,5.84
2023-03-27T06:09:06.332Z,6.19
2023-03-27T06:11:33.226Z,6.47
2023-03-27T06:14:00.179Z,6.73
2023-03-27T06:16:27.306Z,6.94
2023-03-27T06:18:54.130Z,7.01
2023-03-27T06:21:21.035Z,7.48
2023-03-27T06:23:47.847Z,7.75
2023-03-27T06:26:15.402Z,7.99
2023-03-27T06:28:42.551Z,8.31
2023-03-27T06:31:09.242Z,8.32
2023-03-27T06:33:36.240Z,8.52
2023-03-27T06:36:03.344Z,8.32
2023-03-27T06:38:32.358Z,9.03
2023-03-27T06:41:00.162Z,9.65
2023-03-27T06:43:29.201Z,9.78
2023-03-27T06:45:56.283Z,9.77
2023-03-27T06:48:24.405Z,10.06
2023-03-27T06:50:52.355Z,10.46
2023-03-27T06:53:27.123Z,10.09
2023-03-27T06:55:56.076Z,10.21
2023-03-27T06:58:23.782Z,9.48
2023-03-27T07:00:51.589Z,10.65
2023-03-27T07:03:21.640Z,10.92
2023-03-27T07:05:49.603Z,11.31
2023-03-27T07:08:24.341Z,11.32
2023-03-27T07:13:24.867Z,11.99
2023-03-27T07:15:51.717Z,11.63
2023-03-27T07:18:18.382Z,12.23
2023-03-27T07:20:45.173Z,12.21
2023-03-27T07:23:11.733Z,12.40
2023-03-27T07:25:38.576Z,12.63
2023-03-27T07:28:07.295Z,11.50
2023-03-27T07:30:35.841Z,12.63
2023-03-27T07:33:03.774Z,13.14
2023-03-27T07:35:31.475Z,13.46
2023-03-27T07:37:58.627Z,13.67
2023-03-27T07:40:36.944Z,14.13
2023-03-27T07:43:09.057Z,14.04
2023-03-27T07:45:36.479Z,13.54
2023-03-27T07:48:17.296Z,15.89
2023-03-27T07:50:45.318Z,15.52
2023-03-27T07:53:33.285Z,15.67
2023-03-27T07:55:59.896Z,14.03
2023-03-27T07:58:28.218Z,14.49
2023-03-27T08:01:01.881Z,14.21
2023-03-27T08:03:30.073Z,15.42
2023-03-27T08:05:59.367Z,16.13
2023-03-27T08:08:27.311Z,16.78
2023-03-27T08:10:54.801Z,15.72
2023-03-27T08:13:21.439Z,15.24
2023-03-27T08:15:47.988Z,16.80
2023-03-27T08:18:14.643Z,16.39
2023-03-27T08:20:42.354Z,17.25
2023-03-27T08:23:09.025Z,16.55
2023-03-27T08:25:36.776Z,17.01
2023-03-27T08:28:03.657Z,15.94
2023-03-27T08:30:31.808Z,16.42
2023-03-27T08:33:02.729Z,14.78
2023-03-27T08:35:29.454Z,16.45
2023-03-27T08:37:59.055Z,17.44
2023-03-27T08:40:29.082Z,17.50
2023-03-27T08:43:03.058Z,17.28
2023-03-27T08:45:35.583Z,17.57
2023-03-27T08:48:18.147Z,17.04
2023-03-27T08:50:54.720Z,17.69
2023-03-27T08:53:41.949Z,16.89
2023-03-27T08:56:15.690Z,19.02
2023-03-27T08:58:47.044Z,18.09
2023-03-27T09:01:24.101Z,19.37
2023-03-27T09:04:05.159Z,18.63
2023-03-27T09:06:49.597Z,17.74
2023-03-27T09:09:22.167Z,16.06
2023-03-27T09:12:22.848Z,17.50
2023-03-27T09:15:19.855Z,17.86
2023-03-27T09:18:20.404Z,18.74
2023-03-27T09:20:53.997Z,17.46
2023-03-27T09:23:46.471Z,17.46
2023-03-27T09:26:31.046Z,17.26
2023-03-27T09:29:03.994Z,15.45
2023-03-27T09:31:37.909Z,17.71
2023-03-27T09:34:07.364Z,17.22
2023-03-27T09:36:39.532Z,17.39
2023-03-27T09:39:19.891Z,16.61
2023-03-27T09:41:57.478Z,17.46
2023-03-27T09:44:34.295Z,20.12
2023-03-27T09:47:07.528Z,19.41
2023-03-27T09:49:34.880Z,17.70
2023-03-27T09:52:02.740Z,17.73
2023-03-27T09:54:29.690Z,18.13
2023-03-27T09:57:03.379Z,14.93
2023-03-27T09:59:37.623Z,14.08
2023-03-27T10:02:27.231Z,13.58
2023-03-27T10:05:04.457Z,13.72
2023-03-27T10:07:31.076Z,14.46
2023-03-27T10:10:18.048Z,17.62
2023-03-27T10:12:57.318Z,19.30
2023-03-27T10:15:38.892Z,21.84
2023-03-27T10:18:24.169Z,21.87
2023-03-27T10:20:56.504Z,21.06
2023-03-27T10:23:27.838Z,20.64
2023-03-27T10:26:00.622Z,16.92
2023-03-27T10:28:34.778Z,16.69
2023-03-27T10:31:09.961Z,16.74
2023-03-27T10:33:40.525Z,16.53
2023-03-27T10:36:11.854Z,17.49
2023-03-27T10:38:40.786Z,17.21
2023-03-27T10:41:17.577Z,18.34
2023-03-27T10:43:56.907Z,18.70
2023-03-27T10:46:27.081Z,17.61
2023-03-27T10:49:17.466Z,20.02
2023-03-27T10:52:02.667Z,21.04
2023-03-27T10:54:38.195Z,20.83
2023-03-27T10:57:10.841Z,22.46
2023-03-27T10:59:44.168Z,19.74
2023-03-27T11:02:23.350Z,21.13
2023-03-27T11:04:56.529Z,18.70
2023-03-27T11:07:33.871Z,16.17
2023-03-27T11:10:19.783Z,15.87
2023-03-27T11:12:54.082Z,16.69
2023-03-27T11:15:30.472Z,16.25
2023-03-27T11:18:10.365Z,17.21
2023-03-27T11:20:44.508Z,17.70
2023-03-27T11:23:21.145Z,17.20
2023-03-27T11:25:52.977Z,17.81
2023-03-27T11:28:43.283Z,19.16
2023-03-27T11:31:23.203Z,19.80
2023-03-27T11:33:55.012Z,20.83
2023-03-27T11:36:45.742Z,20.83
2023-03-27T11:39:48.479Z,21.32
2023-03-27T11:42:33.282Z,21.86
2023-03-27T11:45:04.443Z,22.20
2023-03-27T11:47:37.275Z,19.51
2023-03-27T11:50:22.131Z,19.23
2023-03-27T11:53:22.766Z,19.14
2023-03-27T11:55:58.818Z,14.96
2023-03-27T11:58:40.500Z,17.57
2023-03-27T12:01:23.830Z,17.02
2023-03-27T12:04:06.691Z,17.46
2023-03-27T12:06:37.580Z,18.38
2023-03-27T12:09:28.811Z,16.38
2023-03-27T12:12:13.587Z,14.69
2023-03-27T12:15:06.153Z,13.83
2023-03-27T12:17:51.585Z,11.63
2023-03-27T12:20:32.240Z,12.74
2023-03-27T12:23:22.799Z,12.08
2023-03-27T12:26:08.966Z,13.33
2023-03-27T12:28:54.204Z,15.46
2023-03-27T12:31:45.297Z,14.69
2023-03-27T12:34:38.559Z,13.16
2023-03-27T12:37:06.274Z,14.84
2023-03-27T12:39:45.036Z,15.30
2023-03-27T12:42:58.359Z,15.74
2023-03-27T12:45:27.870Z,14.98
2023-03-27T12:48:11.031Z,15.48
2023-03-27T12:50:45.215Z,15.35
2023-03-27T12:53:21.093Z,15.55
2023-03-27T12:56:17.540Z,16.66
2023-03-27T12:58:46.683Z,17.02
2023-03-27T13:01:45.562Z,17.12
2023-03-27T13:04:42.180Z,16.56
2023-03-27T13:07:29.610Z,15.73
2023-03-27T13:10:36.760Z,14.77
2023-03-27T13:13:09.446Z,14.36
2023-03-27T13:15:54.417Z,14.32
2023-03-27T13:18:52.818Z,14.83
2023-03-27T13:21:37.169Z,14.08
2023-03-27T13:24:20.476Z,14.65
2023-03-27T13:26:56.113Z,14.43
2023-03-27T13:29:36.037Z,14.60
2023-03-27T13:32:33.827Z,14.44
2023-03-27T13:35:30.607Z,14.69
2023-03-27T13:37:58.590Z,14.61
2023-03-27T13:40:33.252Z,14.18
2023-03-27T13:43:22.688Z,13.12
2023-03-27T13:46:02.951Z,12.86
2023-03-27T13:48:53.231Z,12.56
2023-03-27T13:52:14.342Z,12.68
2023-03-27T13:55:18.757Z,12.89
2023-03-27T13:58:24.556Z,12.61
2023-03-27T14:01:22.607Z,12.70
2023-03-27T14:04:20.443Z,11.81
2023-03-27T14:07:08.524Z,10.16
2023-03-27T14:09:54.739Z,10.21
2023-03-27T14:12:30.777Z,10.64
2023-03-27T14:15:31.625Z,12.27
2023-03-27T14:18:26.759Z,13.21
2023-03-27T14:21:03.715Z,12.11
2023-03-27T14:23:47.031Z,12.68
2023-03-27T14:26:20.232Z,13.92
2023-03-27T14:28:58.814Z,12.54
2023-03-27T14:31:26.895Z,12.18
2023-03-27T14:34:03.761Z,12.41
2023-03-27T14:36:34.168Z,12.30
2023-03-27T14:39:22.698Z,11.64
2023-03-27T14:41:52.645Z,11.90
2023-03-27T14:44:21.397Z,11.24
2023-03-27T14:46:49.324Z,11.61
2023-03-27T14:49:24.781Z,11.06
2023-03-27T14:51:59.827Z,10.57
2023-03-27T14:54:27.504Z,10.95
2023-03-27T14:57:05.167Z,10.91
2023-03-27T14:59:40.289Z,10.58
2023-03-27T15:02:31.878Z,10.36
2023-03-27T15:05:13.306Z,10.48
2023-03-27T15:07:42.212Z,10.32
2023-03-27T15:10:12.640Z,9.97
2023-03-27T15:12:47.251Z,9.30
2023-03-27T15:15:43.650Z,9.94
2023-03-27T15:18:32.915Z,9.52
2023-03-27T15:21:11.497Z,9.55
2023-03-27T15:23:47.857Z,9.31
2023-03-27T15:26:24.612Z,9.70
2023-03-27T15:29:13.708Z,9.86
2023-03-27T15:31:43.706Z,9.89
2023-03-27T15:34:34.436Z,9.61
2023-03-27T15:37:05.829Z,9.17
2023-03-27T15:39:34.763Z,9.54
2023-03-27T15:42:06.814Z,9.61
2023-03-27T15:44:34.196Z,9.18
2023-03-27T15:47:01.518Z,9.16
2023-03-27T15:49:38.090Z,9.30
2023-03-27T15:52:32.644Z,9.16
2023-03-27T15:55:01.783Z,9.52
2023-03-27T15:57:31.695Z,9.31
2023-03-27T16:00:03.026Z,9.74
2023-03-27T16:02:29.999Z,9.72
2023-03-27T16:04:58.167Z,9.92
2023-03-27T16:07:42.389Z,10.09
2023-03-27T16:10:09.947Z,9.97
2023-03-27T16:12:39.278Z,9.74
2023-03-27T16:15:08.571Z,9.96
2023-03-27T16:17:45.147Z,10.08
2023-03-27T16:20:13.032Z,10.08
2023-03-27T16:22:40.525Z,9.76
2023-03-27T16:25:09.998Z,9.58
2023-03-27T16:27:45.974Z,10.24
2023-03-27T16:30:32.348Z,10.03
2023-03-27T16:33:00.340Z,9.74
2023-03-27T16:35:29.389Z,9.88
2023-03-27T16:37:56.494Z,9.41
2023-03-27T16:40:23.552Z,9.67
2023-03-27T16:42:50.610Z,9.79
2023-03-27T16:45:17.331Z,9.64
2023-03-27T16:47:44.075Z,9.37
2023-03-27T16:50:18.699Z,9.22
2023-03-27T16:52:45.471Z,9.44
2023-03-27T16:55:14.080Z,9.17
2023-03-27T16:57:42.356Z,9.30
2023-03-27T17:00:11.819Z,8.93
2023-03-27T17:02:38.880Z,9.01
2023-03-27T17:05:08.008Z,8.71
2023-03-27T17:07:34.946Z,8.69
2023-03-27T17:10:04.188Z,8.68
2023-03-27T17:12:32.490Z,8.77
2023-03-27T17:14:59.545Z,8.83
2023-03-27T17:17:27.823Z,8.90
2023-03-27T17:19:54.480Z,8.84
2023-03-27T17:22:21.605Z,8.85
2023-03-27T17:24:56.074Z,8.81
2023-03-27T17:27:24.105Z,8.71
2023-03-27T17:29:51.502Z,8.68
2023-03-27T17:32:18.697Z,8.61
2023-03-27T17:34:45.632Z,8.36
2023-03-27T17:37:12.670Z,8.29
2023-03-27T17:39:39.651Z,8.24
2023-03-27T17:42:07.535Z,8.05
2023-03-27T17:44:34.086Z,7.94
2023-03-27T17:47:01.013Z,8.03
2023-03-27T17:49:29.768Z,7.91
2023-03-27T17:51:57.959Z,7.94
2023-03-27T17:54:24.746Z,7.88
2023-03-27T17:56:54.631Z,7.79
2023-03-27T17:59:21.441Z,7.68
2023-03-27T18:01:48.407Z,7.69
2023-03-27T18:04:15.041Z,7.48
2023-03-27T18:06:41.860Z,7.63
2023-03-27T18:09:09.676Z,7.61
2023-03-27T18:11:36.660Z,7.39
2023-03-27T18:14:03.482Z,7.42
2023-03-27T18:16:30.539Z,7.23
2023-03-27T18:18:58.114Z,7.34
2023-03-27T18:21:26.424Z,7.24
2023-03-27T18:23:59.903Z,7.23
2023-03-27T18:26:26.623Z,7.31
2023-03-27T18:28:55.212Z,7.05
2023-03-27T18:31:22.917Z,7.19
2023-03-27T18:33:49.559Z,7.17
2023-03-27T18:36:17.211Z,7.25
2023-03-27T18:38:44.104Z,7.37
2023-03-27T18:41:11.250Z,6.99
2023-03-27T18:43:38.308Z,7.08
2023-03-27T18:46:07.125Z,7.19
2023-03-27T18:48:35.039Z,7.11
2023-03-27T18:51:04.456Z,7.06
2023-03-27T18:53:31.609Z,7.13
2023-03-27T18:55:59.799Z,7.05
2023-03-27T18:58:28.025Z,7.16
2023-03-27T19:00:57.053Z,7.08
2023-03-27T19:03:26.821Z,7.15
2023-03-27T19:05:54.734Z,7.12
2023-03-27T19:08:22.018Z,7.11
2023-03-27T19:10:49.899Z,6.91
2023-03-27T19:13:16.396Z,7.07
2023-03-27T19:15:43.226Z,7.00
2023-03-27T19:18:11.066Z,7.12
2023-03-27T19:20:37.806Z,6.80
2023-03-27T19:23:04.593Z,7.19
2023-03-27T19:25:33.948Z,7.09
2023-03-27T19:28:06.165Z,7.28
2023-03-27T19:30:33.168Z,7.30
2023-03-27T19:33:00.041Z,7.32
2023-03-27T19:35:27.670Z,7.27
2023-03-27T19:37:54.708Z,7.15
2023-03-27T19:40:22.135Z,6.98
2023-03-27T19:42:48.855Z,7.09
2023-03-27T19:45:15.717Z,6.85
2023-03-27T19:47:43.521Z,6.86
2023-03-27T19:50:14.603Z,6.72
2023-03-27T19:52:43.629Z,6.69
2023-03-27T19:55:11.893Z,6.69
2023-03-27T19:57:38.552Z,6.48
2023-03-27T20:00:11.312Z,6.65
2023-03-27T20:02:37.968Z,6.82
2023-03-27T20:05:09.349Z,6.82
2023-03-27T20:07:38.775Z,6.84
2023-03-27T20:10:08.260Z,6.97
2023-03-27T20:12:40.342Z,6.91
2023-03-27T20:15:12.325Z,6.53
2023-03-27T20:17:39.754Z,6.79
2023-03-27T20:20:12.149Z,6.88
2023-03-27T20:22:50.266Z,6.85
2023-03-27T20:25:23.765Z,6.69
2023-03-27T20:27:57.499Z,6.60
2023-03-27T20:30:27.545Z,6.68
2023-03-27T20:33:01.441Z,6.84
2023-03-27T20:35:29.627Z,6.85
2023-03-27T20:37:57.618Z,6.73
2023-03-27T20:40:27.390Z,6.77
2023-03-27T20:43:05.912Z,6.66
2023-03-27T20:45:32.565Z,6.56
2023-03-27T20:48:04.495Z,6.65
2023-03-27T20:50:31.740Z,6.58
2023-03-27T20:52:59.611Z,6.71
2023-03-27T20:55:33.677Z,6.38
2023-03-27T20:58:06.393Z,6.47
2023-03-27T21:00:33.028Z,6.48
2023-03-27T21:02:59.737Z,6.44
2023-03-27T21:05:26.424Z,6.36
2023-03-27T21:07:53.209Z,6.38
2023-03-27T21:10:21.535Z,6.09
2023-03-27T21:12:48.700Z,5.90
2023-03-27T21:15:15.410Z,5.99
2023-03-27T21:17:42.070Z,6.05
2023-03-27T21:20:10.320Z,5.85
2023-03-27T21:22:37.026Z,5.86
2023-03-27T21:25:04.133Z,5.80
2023-03-27T21:27:30.996Z,5.83
2023-03-27T21:29:57.723Z,5.88
2023-03-27T21:32:24.711Z,5.73
2023-03-27T21:34:51.317Z,5.84
2023-03-27T21:37:17.945Z,5.73
2023-03-27T21:39:44.688Z,5.72
2023-03-27T21:42:12.846Z,5.74
2023-03-27T21:44:39.430Z,5.68
2023-03-27T21:47:05.945Z,5.64
2023-03-27T21:49:32.456Z,5.73
2023-03-27T21:51:59.016Z,5.56
2023-03-27T21:54:25.833Z,5.52
2023-03-27T21:56:52.446Z,5.57
2023-03-27T21:59:19.072Z,5.68
2023-03-27T22:01:45.802Z,5.74
2023-03-27T22:04:12.360Z,5.53
2023-03-27T22:06:38.960Z,5.37
2023-03-27T22:09:05.954Z,5.42
2023-03-27T22:11:33.164Z,5.48
2023-03-27T22:13:59.834Z,5.24
2023-03-27T22:16:26.642Z,5.40
2023-03-27T22:18:53.314Z,5.38
2023-03-27T22:21:22.955Z,5.19
2023-03-27T22:23:52.941Z,5.38
2023-03-27T22:26:21.411Z,5.35
2023-03-27T22:28:48.143Z,5.33
2023-03-27T22:31:16.791Z,5.38
2023-03-27T22:33:43.427Z,5.31
2023-03-27T22:36:12.159Z,5.46
2023-03-27T22:38:40.722Z,5.22
2023-03-27T22:41:08.913Z,5.20
2023-03-27T22:43:36.184Z,5.39
2023-03-27T22:46:14.482Z,5.41
2023-03-27T22:48:42.568Z,5.42
2023-03-27T22:51:11.048Z,5.31
2023-03-27T22:53:37.969Z,5.47
2023-03-27T22:56:06.648Z,5.42
2023-03-27T22:58:33.882Z,5.37
2023-03-27T23:01:00.921Z,5.31
2023-03-27T23:03:28.105Z,5.18
2023-03-27T23:05:55.403Z,5.23
2023-03-27T23:08:24.608Z,5.27
2023-03-27T23:10:56.494Z,5.04
2023-03-27T23:13:26.548Z,5.07
2023-03-27T23:15:53.166Z,5.08
2023-03-27T23:18:23.864Z,5.27
2023-03-27T23:21:00.313Z,5.10
2023-03-27T23:23:28.458Z,5.01
2023-03-27T23:25:57.558Z,5.10
2023-03-27T23:28:26.189Z,5.14
2023-03-27T23:30:59.053Z,4.95
2023-03-27T23:33:26.711Z,5.14
2023-03-27T23:36:14.356Z,5.12
2023-03-27T23:38:44.208Z,5.07
2023-03-27T23:41:13.496Z,4.96
2023-03-27T23:43:41.086Z,5.00
2023-03-27T23:46:11.526Z,5.02
2023-03-27T23:48:40.286Z,4.96
2023-03-27T23:51:07.987Z,4.90
2023-03-27T23:53:36.739Z,5.04
2023-03-27T23:56:03.773Z,5.02
2023-03-27T23:58:33.762Z,4.89
